Gogerbank, United Kingdom
Current Conditions -  °F | °C
As of 1:20 PM on Wednesday 22 Oct 2014 (Local Time) from EGPH Reporting Station
Broken Clouds Broken Clouds  
Wind Chill: 54°   Ceiling: 1800
Heat Index: 54°   Visibility: 6mi
Dew Point: 46°   Wind: 17mph
Humidity: 77%   Direction: 240°WSW
Pressure: 30"   Gusts: 29mph
Location:  55.92°N, 3.32°W
Report Text: EGPH 221220Z 24015G25KT 9000 BKN018 12/08 Q1016
Loading
Personal Weather Stations






























Interactive Weather Map New forecast layout! Learn more

10-Day Weather Forecast

Advertisements
Track Severe Weather on mobile